South Lynnfield, Massachusetts
Current Conditions -  °F | °C
As of 1:53 AM on Friday 28 Nov 2014 (Local Time) from KBVY Reporting Station
Light Snow Light Snow  
Wind Chill: 22°   Ceiling: 1400
Heat Index: 30°   Visibility: 1.5mi
Dew Point: 27°   Wind: 9mph
Humidity: 88%   Direction: 330°NNW
Pressure: 29.98"   Gusts: NA
Location:  42.5359°N, 71.0388°W
Report Text: KBVY 280653Z AUTO 33008KT 1 1/2SM -SN BR FEW007 OVC014 M01/M03 A2998 RMK AO2 SLP150 P0001 T10111028
Loading
Personal Weather Stations






























Interactive Weather Map New forecast layout! Learn more

10-Day Weather Forecast

Advertisements
Track Severe Weather on mobile